Time;durP1;ratioP1;P1;durP2;ratioP2;P2;SDS_P1;SDS_P2;PMS_P1;PMS_P2;Temp;Humidity;BMP_temperature;BMP_pressure;BME280_temperature;BME280_humidity;BME280_pressure;Samples;Min_cycle;Max_cycle;Signal;HPM_P1;HPM_P2
2023/01/16 00:00:55;;;;;;;8.32;2.83;;;4.00;99.90;;;;;;5056095;28;20048;-80
2023/01/16 00:03:21;;;;;;;10.27;2.88;;;4.00;99.90;;;;;;5073651;28;20032;-79
2023/01/16 00:05:47;;;;;;;11.93;2.92;;;3.90;99.90;;;;;;5073710;28;20044;-79
2023/01/16 00:08:13;;;;;;;7.97;2.75;;;3.90;99.90;;;;;;5049489;28;20045;-79
2023/01/16 00:10:39;;;;;;;6.97;2.70;;;3.90;99.90;;;;;;5067173;28;20057;-80
2023/01/16 00:13:05;;;;;;;9.23;2.70;;;3.80;99.90;;;;;;5073673;28;20097;-80
2023/01/16 00:15:31;;;;;;;6.85;2.70;;;3.90;99.90;;;;;;5073927;28;20075;-81
2023/01/16 00:17:57;;;;;;;7.57;2.58;;;4.10;99.90;;;;;;5071186;28;20464;-80
2023/01/16 00:20:23;;;;;;;7.72;2.63;;;3.90;99.90;;;;;;5056527;28;20145;-80
2023/01/16 00:22:49;;;;;;;7.85;2.88;;;3.90;99.90;;;;;;5059540;28;20053;-80
2023/01/16 00:25:15;;;;;;;9.05;3.00;;;3.90;99.90;;;;;;5039112;28;20056;-80
2023/01/16 00:27:40;;;;;;;8.20;2.58;;;4.00;99.90;;;;;;5074939;28;20044;-80
2023/01/16 00:30:07;;;;;;;8.45;2.53;;;4.10;99.90;;;;;;5023082;28;20052;-79
2023/01/16 00:32:33;;;;;;;9.48;2.67;;;4.20;99.90;;;;;;5061894;28;20061;-80
2023/01/16 00:34:59;;;;;;;8.73;2.65;;;4.20;99.90;;;;;;5036604;28;20048;-79
2023/01/16 00:37:24;;;;;;;7.38;2.30;;;4.30;99.90;;;;;;5046829;28;20460;-79
2023/01/16 00:39:53;;;;;;;7.88;2.30;;;4.30;99.90;;;;;;5037446;28;20091;-80
2023/01/16 00:42:19;;;;;;;10.43;2.70;;;4.20;99.90;;;;;;5072758;28;20476;-83
2023/01/16 00:44:44;;;;;;;9.02;2.60;;;4.30;99.90;;;;;;5056230;28;20048;-81
2023/01/16 00:47:10;;;;;;;7.95;2.25;;;4.30;99.90;;;;;;5059296;28;20068;-83
2023/01/16 00:49:36;;;;;;;8.25;2.80;;;4.30;99.90;;;;;;5072965;28;20049;-80
2023/01/16 00:52:03;;;;;;;9.73;2.67;;;4.30;99.90;;;;;;5072619;28;20131;-79
2023/01/16 00:54:28;;;;;;;9.60;2.78;;;4.30;99.90;;;;;;5045013;28;20053;-80
2023/01/16 00:56:54;;;;;;;8.38;2.40;;;4.30;99.90;;;;;;5056593;28;20565;-80
2023/01/16 00:59:20;;;;;;;10.07;2.55;;;4.30;99.90;;;;;;5059528;28;20408;-80
2023/01/16 01:01:46;;;;;;;8.38;2.50;;;4.40;99.90;;;;;;5087968;28;20123;-81
2023/01/16 01:04:12;;;;;;;9.32;2.70;;;4.40;99.90;;;;;;5072033;28;20427;-80
2023/01/16 01:06:38;;;;;;;8.68;2.78;;;4.40;99.90;;;;;;5056348;28;20396;-80
2023/01/16 01:09:04;;;;;;;7.30;2.30;;;4.30;99.90;;;;;;5057100;28;20489;-80
2023/01/16 01:11:30;;;;;;;8.23;2.78;;;4.40;99.90;;;;;;5051478;28;20044;-79
2023/01/16 01:13:57;;;;;;;12.65;2.75;;;4.40;99.90;;;;;;5068240;28;20041;-81
2023/01/16 01:16:23;;;;;;;8.40;2.28;;;4.40;99.90;;;;;;5071976;28;20485;-80
2023/01/16 01:18:49;;;;;;;9.85;2.47;;;4.40;99.90;;;;;;5071406;28;20048;-79
2023/01/16 01:21:15;;;;;;;8.05;2.10;;;4.50;99.90;;;;;;5072218;28;20044;-80
2023/01/16 01:23:41;;;;;;;7.55;2.22;;;4.50;99.90;;;;;;5071271;28;20404;-80
2023/01/16 01:26:15;;;;;;;8.82;2.45;;;4.60;99.90;;;;;;5071657;28;20060;-80
2023/01/16 01:28:41;;;;;;;8.25;2.20;;;4.60;99.90;;;;;;5071445;28;20059;-80
2023/01/16 01:31:10;;;;;;;8.38;2.30;;;4.60;99.90;;;;;;5071978;28;20049;-80
2023/01/16 01:33:35;;;;;;;7.97;2.20;;;4.60;99.90;;;;;;5071213;28;20044;-80
2023/01/16 01:36:02;;;;;;;9.07;2.30;;;4.60;99.90;;;;;;5072520;28;20051;-82
2023/01/16 01:38:28;;;;;;;8.80;2.10;;;4.60;99.90;;;;;;5070362;28;20048;-80
2023/01/16 01:40:53;;;;;;;8.70;2.50;;;4.70;99.90;;;;;;5065890;28;20473;-80
2023/01/16 01:43:19;;;;;;;8.20;2.33;;;4.70;99.90;;;;;;5064701;28;20052;-79
2023/01/16 01:45:51;;;;;;;7.78;2.22;;;4.70;99.90;;;;;;5071789;28;20053;-79
2023/01/16 01:48:34;;;;;;;8.90;2.03;;;4.70;99.90;;;;;;5071715;28;20056;-80
2023/01/16 01:51:04;;;;;;;9.98;2.10;;;4.70;99.90;;;;;;5053299;28;20041;-80
2023/01/16 01:53:43;;;;;;;9.30;2.30;;;4.70;99.90;;;;;;5054576;28;20477;-81
2023/01/16 01:56:17;;;;;;;8.73;1.92;;;4.80;99.90;;;;;;5070262;28;20051;-80
2023/01/16 01:58:47;;;;;;;8.63;2.25;;;4.70;99.90;;;;;;5071603;28;20079;-80
2023/01/16 02:01:12;;;;;;;7.63;2.10;;;4.70;99.90;;;;;;5070694;28;20043;-79
2023/01/16 02:03:46;;;;;;;8.65;2.10;;;4.70;99.90;;;;;;5058368;28;20477;-80
2023/01/16 02:06:21;;;;;;;10.55;2.05;;;4.70;99.90;;;;;;5066454;28;20055;-81
2023/01/16 02:08:50;;;;;;;10.50;2.00;;;4.80;99.90;;;;;;5062049;28;20130;-80
2023/01/16 02:11:28;;;;;;;6.78;2.00;;;4.80;99.90;;;;;;5069738;28;20106;-80
2023/01/16 02:14:00;;;;;;;6.78;1.83;;;4.80;99.90;;;;;;5071702;28;20139;-80
2023/01/16 02:19:50;;;;;;;8.05;2.00;;;4.80;99.90;;;;;;5071456;28;20477;-80
2023/01/16 02:22:46;;;;;;;7.78;2.00;;;4.90;99.90;;;;;;5061366;28;20514;-79
2023/01/16 02:25:36;;;;;;;6.38;1.77;;;4.90;99.90;;;;;;5070242;28;20480;-80
2023/01/16 02:28:34;;;;;;;8.27;2.05;;;4.90;99.90;;;;;;5056533;28;20059;-80
2023/01/16 02:31:03;;;;;;;7.40;2.03;;;4.90;99.90;;;;;;5012157;28;20409;-80
2023/01/16 02:33:31;;;;;;;8.20;1.98;;;4.80;99.90;;;;;;5086436;28;20053;-81
2023/01/16 02:36:08;;;;;;;12.52;2.47;;;4.90;99.90;;;;;;5029230;28;20060;-80
2023/01/16 02:39:12;;;;;;;7.68;1.98;;;4.80;99.90;;;;;;5055413;28;20056;-81
2023/01/16 02:41:52;;;;;;;8.13;2.10;;;4.80;99.90;;;;;;5074958;28;20037;-80
2023/01/16 02:44:30;;;;;;;6.00;2.00;;;4.80;99.90;;;;;;5075585;28;20109;-80
2023/01/16 02:47:11;;;;;;;8.23;2.03;;;4.80;99.90;;;;;;5076261;28;20151;-80
2023/01/16 02:49:49;;;;;;;7.97;2.13;;;4.80;99.90;;;;;;5075328;28;20102;-80
2023/01/16 02:52:20;;;;;;;9.23;2.22;;;4.70;99.90;;;;;;5058727;28;20036;-80
2023/01/16 02:55:00;;;;;;;6.20;2.20;;;4.70;99.90;;;;;;5074576;28;20086;-80
2023/01/16 02:57:33;;;;;;;10.00;2.67;;;4.70;99.90;;;;;;5074680;28;20071;-80
2023/01/16 02:59:59;;;;;;;8.07;2.33;;;4.70;99.90;;;;;;5054958;28;20076;-82
2023/01/16 03:02:25;;;;;;;7.72;2.60;;;4.70;99.90;;;;;;5074074;28;20142;-80
2023/01/16 03:04:53;;;;;;;7.15;2.63;;;4.70;99.90;;;;;;5075194;28;20051;-81
2023/01/16 03:07:46;;;;;;;8.75;2.58;;;4.70;99.90;;;;;;5073808;28;20045;-80
2023/01/16 03:10:27;;;;;;;10.18;2.78;;;4.70;99.90;;;;;;5080523;28;20044;-81
2023/01/16 03:13:54;;;;;;;9.00;2.85;;;4.70;99.90;;;;;;5075042;28;20086;-81
2023/01/16 03:16:34;;;;;;;7.95;2.60;;;4.60;99.90;;;;;;5036824;28;20049;-81
2023/01/16 03:19:30;;;;;;;7.72;2.60;;;4.60;99.90;;;;;;5057676;28;20057;-81
2023/01/16 03:22:21;;;;;;;7.03;2.75;;;4.50;99.90;;;;;;5074811;28;20040;-80
2023/01/16 03:25:11;;;;;;;7.20;2.55;;;4.50;99.90;;;;;;5072890;28;20067;-80
2023/01/16 03:27:53;;;;;;;6.88;2.95;;;4.40;99.90;;;;;;5071456;28;20055;-81
2023/01/16 03:30:26;;;;;;;8.95;3.00;;;4.40;99.90;;;;;;5061917;28;20047;-80
2023/01/16 03:33:19;;;;;;;9.02;3.63;;;4.40;99.90;;;;;;5074269;28;20048;-80
2023/01/16 03:36:23;;;;;;;8.80;3.28;;;4.40;99.90;;;;;;5071150;28;20049;-80
2023/01/16 03:38:51;;;;;;;8.27;3.72;;;4.50;99.90;;;;;;5032541;28;20094;-81
2023/01/16 03:41:22;;;;;;;9.25;3.83;;;4.50;99.90;;;;;;5054295;28;20159;-81
2023/01/16 03:43:52;;;;;;;8.77;4.07;;;4.60;99.90;;;;;;5071845;28;20097;-81
2023/01/16 03:46:26;;;;;;;9.20;3.90;;;4.60;99.90;;;;;;5062875;28;20121;-81
2023/01/16 03:49:08;;;;;;;10.82;4.55;;;4.60;99.90;;;;;;5065968;28;20060;-81
2023/01/16 03:51:38;;;;;;;9.70;4.40;;;4.60;99.90;;;;;;5070634;28;20055;-81
2023/01/16 03:54:24;;;;;;;8.68;4.63;;;4.60;99.90;;;;;;5072751;28;20370;-81
2023/01/16 03:56:57;;;;;;;11.18;4.60;;;4.60;99.90;;;;;;5070743;28;20501;-81
2023/01/16 03:59:23;;;;;;;9.32;5.15;;;4.70;99.90;;;;;;5061139;28;20049;-81
2023/01/16 04:02:00;;;;;;;9.43;5.50;;;4.60;99.90;;;;;;5052852;28;20045;-81
2023/01/16 04:05:01;;;;;;;9.18;5.90;;;4.60;99.90;;;;;;5073839;28;20048;-81
2023/01/16 04:07:43;;;;;;;10.45;5.85;;;4.60;99.90;;;;;;5068485;28;20103;-81
2023/01/16 04:10:18;;;;;;;9.85;6.05;;;4.60;99.90;;;;;;5072356;28;20083;-81
2023/01/16 04:12:49;;;;;;;11.18;6.65;;;4.60;99.90;;;;;;5077228;28;20055;-81
2023/01/16 04:15:17;;;;;;;10.15;6.75;;;4.50;99.90;;;;;;5059130;28;20053;-81
2023/01/16 04:17:42;;;;;;;10.82;6.95;;;4.50;99.90;;;;;;5066948;28;20056;-83
2023/01/16 04:20:09;;;;;;;13.05;7.60;;;4.50;99.90;;;;;;5061286;28;20040;-80
2023/01/16 04:22:35;;;;;;;11.43;7.57;;;4.50;99.90;;;;;;5073926;28;20056;-81
2023/01/16 04:25:05;;;;;;;12.57;9.02;;;4.50;99.90;;;;;;5058077;28;20052;-81
2023/01/16 04:27:31;;;;;;;13.55;9.40;;;4.50;99.90;;;;;;5044839;28;20051;-82
2023/01/16 04:29:57;;;;;;;14.23;10.05;;;4.50;99.90;;;;;;5071436;28;20037;-82
2023/01/16 04:32:22;;;;;;;15.80;10.07;;;4.50;99.90;;;;;;5073536;28;20056;-81
2023/01/16 04:34:48;;;;;;;15.73;11.57;;;4.50;99.90;;;;;;5075277;28;20135;-80
2023/01/16 04:37:17;;;;;;;18.08;12.15;;;4.50;99.90;;;;;;5056910;28;20044;-80
2023/01/16 04:39:43;;;;;;;19.70;13.45;;;4.50;99.90;;;;;;5072408;28;20048;-80
2023/01/16 04:42:10;;;;;;;19.67;13.88;;;4.50;99.90;;;;;;5058878;28;20040;-82
2023/01/16 04:44:36;;;;;;;19.67;13.52;;;4.50;99.90;;;;;;5045351;28;20052;-81
2023/01/16 04:47:02;;;;;;;21.20;13.57;;;4.50;99.90;;;;;;5071530;28;20044;-80
2023/01/16 04:49:27;;;;;;;19.15;13.70;;;4.50;99.90;;;;;;5036823;28;20064;-81
2023/01/16 04:51:53;;;;;;;21.17;13.05;;;4.60;99.90;;;;;;5072890;28;20056;-82
2023/01/16 04:54:20;;;;;;;20.70;13.77;;;4.60;99.90;;;;;;5072441;28;20053;-80
2023/01/16 04:56:46;;;;;;;22.30;15.38;;;4.60;99.90;;;;;;5068089;28;20041;-81
2023/01/16 04:59:18;;;;;;;22.35;14.05;;;4.50;99.90;;;;;;5047131;28;20485;-81
2023/01/16 05:01:44;;;;;;;;;;;4.50;99.90;;;;;;5073232;28;20045;-79
2023/01/16 05:04:12;;;;;;;19.08;13.30;;;4.50;99.90;;;;;;5073012;28;19920;-80
2023/01/16 05:06:38;;;;;;;19.52;13.43;;;4.60;99.90;;;;;;5055852;28;20040;-81
2023/01/16 05:09:05;;;;;;;18.35;12.45;;;4.50;99.90;;;;;;5071339;28;20040;-79
2023/01/16 05:11:32;;;;;;;16.20;12.07;;;4.50;99.90;;;;;;5039463;28;20166;-79
2023/01/16 05:13:58;;;;;;;17.30;11.95;;;4.40;99.90;;;;;;5055663;28;20473;-79
2023/01/16 05:16:24;;;;;;;18.35;11.43;;;4.40;99.90;;;;;;5055992;28;20520;-80
2023/01/16 05:18:50;;;;;;;15.85;11.18;;;4.30;99.90;;;;;;5053526;28;20049;-80
2023/01/16 05:21:15;;;;;;;18.08;10.65;;;4.20;99.90;;;;;;5056394;28;20043;-80
2023/01/16 05:23:41;;;;;;;16.65;10.07;;;4.20;99.90;;;;;;5070932;28;20579;-79
2023/01/16 05:26:07;;;;;;;15.93;10.23;;;4.10;99.90;;;;;;5071803;28;20053;-80
2023/01/16 05:28:34;;;;;;;16.67;9.88;;;4.00;99.90;;;;;;5069033;28;20052;-79
2023/01/16 05:31:00;;;;;;;16.23;10.23;;;3.90;99.90;;;;;;5076932;28;20079;-78
2023/01/16 05:33:26;;;;;;;16.48;8.98;;;3.90;99.90;;;;;;5054511;28;20408;-80
2023/01/16 05:35:53;;;;;;;15.30;8.98;;;3.80;99.90;;;;;;5052264;28;20048;-80
2023/01/16 05:38:20;;;;;;;15.63;8.50;;;3.80;99.90;;;;;;5069429;28;20119;-80
2023/01/16 05:40:46;;;;;;;13.38;8.73;;;3.80;99.90;;;;;;5037499;28;20047;-80
2023/01/16 05:43:12;;;;;;;15.13;8.98;;;3.80;99.90;;;;;;5055990;28;20389;-80
2023/01/16 05:45:38;;;;;;;14.55;8.60;;;3.70;99.90;;;;;;5049963;28;20044;-80
2023/01/16 05:48:04;;;;;;;14.32;8.25;;;3.70;99.90;;;;;;5058670;28;20041;-80
2023/01/16 05:50:29;;;;;;;14.95;8.45;;;3.80;99.90;;;;;;5051733;28;20044;-79
2023/01/16 05:52:56;;;;;;;14.50;7.90;;;3.70;99.90;;;;;;5054419;28;20076;-80
2023/01/16 05:55:21;;;;;;;16.90;7.32;;;3.70;99.90;;;;;;5068872;28;20123;-80
2023/01/16 05:57:47;;;;;;;14.80;7.53;;;3.70;99.90;;;;;;5071878;28;20190;-78
2023/01/16 06:00:13;;;;;;;13.88;7.00;;;3.70;99.90;;;;;;5070001;28;20052;-80
2023/01/16 06:02:39;;;;;;;12.10;7.05;;;3.70;99.90;;;;;;5040337;28;20094;-80
2023/01/16 06:05:05;;;;;;;14.05;7.18;;;3.80;99.90;;;;;;5040080;28;20123;-78
2023/01/16 06:07:31;;;;;;;13.88;6.72;;;3.90;99.90;;;;;;5054891;28;20299;-79
2023/01/16 06:09:57;;;;;;;12.25;6.75;;;4.00;99.90;;;;;;5068339;28;20055;-80
2023/01/16 06:12:23;;;;;;;14.65;6.28;;;3.80;99.90;;;;;;5034968;28;20098;-79
2023/01/16 06:14:48;;;;;;;9.98;5.95;;;3.90;99.90;;;;;;5034477;28;20095;-80
2023/01/16 06:17:15;;;;;;;11.55;6.47;;;3.90;99.90;;;;;;5019077;28;20049;-78
2023/01/16 06:19:42;;;;;;;11.40;6.10;;;3.80;99.90;;;;;;5038684;28;20055;-80
2023/01/16 06:22:07;;;;;;;11.70;5.63;;;3.90;99.90;;;;;;5055291;28;20080;-78
2023/01/16 06:24:33;;;;;;;11.32;5.65;;;4.00;99.90;;;;;;5035110;28;20088;-79
2023/01/16 06:26:59;;;;;;;12.77;5.47;;;4.10;99.90;;;;;;5018165;28;20044;-78
2023/01/16 06:29:25;;;;;;;11.18;5.40;;;4.10;99.90;;;;;;5035395;28;20063;-77
2023/01/16 06:31:50;;;;;;;9.55;4.82;;;4.10;99.90;;;;;;5068458;28;20087;-80
2023/01/16 06:34:16;;;;;;;10.30;5.45;;;4.00;99.90;;;;;;5063327;28;20139;-79
2023/01/16 06:36:44;;;;;;;11.55;5.07;;;4.00;99.90;;;;;;5063789;28;20587;-79
2023/01/16 06:39:12;;;;;;;11.63;5.20;;;3.90;99.90;;;;;;5049788;28;20060;-78
2023/01/16 06:41:38;;;;;;;11.60;5.13;;;3.90;99.90;;;;;;5035215;28;20047;-79
2023/01/16 06:44:04;;;;;;;8.93;4.93;;;3.90;99.90;;;;;;5049643;28;20091;-78
2023/01/16 06:46:30;;;;;;;12.35;5.10;;;3.90;99.90;;;;;;5066625;28;20069;-78
2023/01/16 06:48:56;;;;;;;11.30;5.43;;;3.90;99.90;;;;;;5049155;28;20044;-79
2023/01/16 06:51:22;;;;;;;12.13;5.28;;;3.80;99.90;;;;;;5068424;28;20048;-78
2023/01/16 06:53:47;;;;;;;12.07;4.75;;;3.80;99.90;;;;;;5050859;28;20053;-78
2023/01/16 06:56:13;;;;;;;12.55;5.80;;;3.80;99.90;;;;;;5075491;28;20054;-78
2023/01/16 06:58:39;;;;;;;12.23;5.72;;;3.80;99.90;;;;;;5065160;28;20114;-77
2023/01/16 07:01:05;;;;;;;11.07;5.53;;;3.80;99.90;;;;;;5031676;28;20511;-79
2023/01/16 07:03:30;;;;;;;10.27;5.15;;;3.70;99.90;;;;;;5064129;28;20102;-79
2023/01/16 07:05:57;;;;;;;11.23;5.57;;;3.80;99.90;;;;;;5074097;28;20113;-78
2023/01/16 07:08:23;;;;;;;12.90;5.57;;;3.80;99.90;;;;;;5031854;28;20087;-77
2023/01/16 07:10:48;;;;;;;12.05;5.80;;;3.70;99.90;;;;;;5070787;28;20056;-79
2023/01/16 07:13:14;;;;;;;13.55;5.93;;;3.70;99.90;;;;;;5060733;28;20092;-78
2023/01/16 07:24:07;;;;;;;12.95;6.03;;;3.50;99.90;;;;;;5073345;28;20056;-79
2023/01/16 07:26:35;;;;;;;13.50;6.65;;;3.50;99.90;;;;;;5069828;28;20561;-79
2023/01/16 07:29:02;;;;;;;11.18;5.95;;;3.40;99.90;;;;;;5064893;28;20101;-79
2023/01/16 07:31:29;;;;;;;13.07;6.50;;;3.40;99.90;;;;;;5062840;28;20466;-79
2023/01/16 07:33:55;;;;;;;15.05;7.18;;;3.40;99.90;;;;;;5059897;28;20049;-79
2023/01/16 07:36:20;;;;;;;12.27;6.38;;;3.50;99.90;;;;;;5071238;28;20130;-79
2023/01/16 07:38:46;;;;;;;13.75;6.38;;;3.40;99.90;;;;;;5076641;28;20068;-79
2023/01/16 07:41:13;;;;;;;12.23;6.70;;;3.50;99.90;;;;;;5074276;28;20071;-78
2023/01/16 07:43:39;;;;;;;14.27;6.28;;;3.50;99.90;;;;;;5074824;28;20044;-78
2023/01/16 07:46:06;;;;;;;12.88;6.68;;;3.40;99.90;;;;;;5057634;28;20054;-79
2023/01/16 07:48:32;;;;;;;13.25;5.93;;;3.50;99.90;;;;;;5073812;28;20052;-79
2023/01/16 07:50:58;;;;;;;12.63;6.30;;;3.50;99.90;;;;;;5057740;28;20075;-78
2023/01/16 07:53:26;;;;;;;12.15;6.03;;;3.50;99.90;;;;;;5072159;28;20116;-80
2023/01/16 07:56:00;;;;;;;14.82;6.43;;;3.50;99.90;;;;;;5073947;28;20044;-78
2023/01/16 07:58:27;;;;;;;12.02;5.80;;;3.50;99.90;;;;;;5073159;28;20131;-78
2023/01/16 08:00:54;;;;;;;12.77;5.93;;;3.60;99.90;;;;;;5070728;28;20083;-81
2023/01/16 08:03:20;;;;;;;9.02;4.72;;;3.60;99.90;;;;;;5056767;28;20079;-76
2023/01/16 08:05:46;;;;;;;11.98;5.70;;;3.60;99.90;;;;;;5077524;28;20079;-78
2023/01/16 08:08:12;;;;;;;9.95;4.88;;;3.60;99.90;;;;;;5072419;28;20137;-78
2023/01/16 08:10:39;;;;;;;10.95;5.43;;;3.70;99.90;;;;;;5050457;28;20382;-79
2023/01/16 08:13:05;;;;;;;10.05;4.60;;;3.70;99.90;;;;;;5062518;28;20044;-78
2023/01/16 08:15:30;;;;;;;13.73;4.63;;;3.70;99.90;;;;;;5061865;28;20036;-78
2023/01/16 08:17:56;;;;;;;10.43;4.95;;;3.70;99.90;;;;;;5037314;28;20051;-78
2023/01/16 08:20:24;;;;;;;10.50;4.95;;;3.70;99.90;;;;;;5063827;28;20055;-77
2023/01/16 08:22:51;;;;;;;10.93;4.50;;;3.70;99.90;;;;;;5041522;28;20040;-78
2023/01/16 08:25:19;;;;;;;11.15;4.78;;;3.90;99.90;;;;;;5058509;28;20060;-78
2023/01/16 08:27:45;;;;;;;6.45;2.85;;;3.90;99.90;;;;;;5045378;28;20060;-77
2023/01/16 08:30:11;;;;;;;12.00;4.57;;;4.00;99.90;;;;;;5059194;28;20045;-78
2023/01/16 08:32:37;;;;;;;8.38;3.80;;;4.00;99.90;;;;;;5061642;28;20392;-78
2023/01/16 08:35:03;;;;;;;9.77;4.15;;;4.00;99.90;;;;;;5041814;28;20127;-78
2023/01/16 08:37:30;;;;;;;12.18;3.65;;;4.10;99.90;;;;;;5061305;28;20535;-77
2023/01/16 08:39:56;;;;;;;8.45;3.75;;;4.10;99.90;;;;;;5060858;28;20507;-80
2023/01/16 08:53:22;;;;;;;7.93;3.53;;;4.20;99.90;;;;;;5038740;28;20135;-78
2023/01/16 08:55:49;;;;;;;10.05;3.35;;;4.20;99.90;;;;;;5051764;28;20158;-79
2023/01/16 08:58:15;;;;;;;6.85;2.80;;;4.20;99.90;;;;;;5064093;28;20055;-76
2023/01/16 09:00:40;;;;;;;9.25;3.65;;;4.20;99.90;;;;;;5050911;28;20040;-79
2023/01/16 09:03:06;;;;;;;9.57;4.07;;;4.20;99.90;;;;;;5064673;28;20040;-78
2023/01/16 09:05:32;;;;;;;4.85;2.45;;;4.30;99.90;;;;;;5059693;28;20049;-76
2023/01/16 09:07:58;;;;;;;6.13;2.45;;;4.30;99.90;;;;;;5062508;28;20041;-77
2023/01/16 09:10:24;;;;;;;5.95;2.38;;;4.40;99.90;;;;;;5056791;28;20080;-78
2023/01/16 09:15:35;;;;;;;7.47;3.08;;;4.30;99.90;;;;;;5055061;28;20063;-78
2023/01/16 09:18:01;;;;;;;8.60;3.28;;;4.30;99.90;;;;;;5058056;28;20041;-77
2023/01/16 09:20:26;;;;;;;3.80;1.58;;;4.30;99.90;;;;;;5041185;28;20048;-76
2023/01/16 09:22:59;;;;;;;6.95;2.88;;;4.30;99.90;;;;;;5062473;28;20052;-76
2023/01/16 09:25:31;;;;;;;5.80;2.53;;;4.30;99.90;;;;;;5058210;28;20057;-76
2023/01/16 09:27:57;;;;;;;6.45;2.38;;;4.40;99.90;;;;;;5047541;28;20492;-77
2023/01/16 09:30:25;;;;;;;6.30;2.67;;;4.30;99.90;;;;;;5065242;28;20049;-77
2023/01/16 09:32:51;;;;;;;8.05;2.88;;;4.40;99.90;;;;;;5058114;28;20051;-76
2023/01/16 09:35:17;;;;;;;7.40;3.20;;;4.30;99.90;;;;;;5038796;28;20049;-76
2023/01/16 09:37:44;;;;;;;7.50;2.30;;;4.30;99.90;;;;;;5047739;28;20104;-76
2023/01/16 09:40:16;;;;;;;6.28;2.30;;;4.30;99.90;;;;;;5060493;28;20114;-76
2023/01/16 09:45:33;;;;;;;5.82;2.30;;;4.30;99.90;;;;;;5053891;28;19928;-76
2023/01/16 09:48:33;;;;;;;5.50;2.40;;;4.30;99.90;;;;;;5067077;28;20056;-77
2023/01/16 09:51:10;;;;;;;6.50;2.40;;;4.30;99.90;;;;;;5053999;28;20397;-76
2023/01/16 09:58:35;;;;;;;7.63;2.10;;;4.40;99.90;;;;;;5059784;28;20103;-75
2023/01/16 09:59:42;;;;;;;5.13;1.90;;;4.40;99.90;;;;;;5055951;28;20080;-75
2023/01/16 10:02:29;;;;;;;5.30;1.83;;;4.50;99.90;;;;;;5069610;28;20044;-76
2023/01/16 10:04:55;;;;;;;4.57;1.60;;;4.50;99.90;;;;;;5057912;28;20132;-75
2023/01/16 10:07:39;;;;;;;4.60;1.58;;;4.50;99.90;;;;;;5065826;28;20040;-76
2023/01/16 10:10:37;;;;;;;2.33;1.00;;;4.50;99.90;;;;;;5068074;28;20488;-75
2023/01/16 10:13:24;;;;;;;6.47;1.63;;;4.60;99.90;;;;;;5032042;28;20103;-75
2023/01/16 10:16:05;;;;;;;5.45;1.30;;;4.60;99.90;;;;;;5054850;28;20037;-75
2023/01/16 10:18:54;;;;;;;3.83;1.50;;;4.60;99.90;;;;;;5052711;28;20516;-75
2023/01/16 10:21:27;;;;;;;2.75;1.10;;;4.60;99.90;;;;;;5018403;28;20060;-76
2023/01/16 10:23:56;;;;;;;4.03;1.48;;;4.60;99.90;;;;;;5039938;28;20127;-75
2023/01/16 10:26:47;;;;;;;2.70;1.23;;;4.60;99.90;;;;;;5044422;28;20136;-74
2023/01/16 10:29:31;;;;;;;4.85;0.93;;;4.60;99.90;;;;;;5049160;28;20276;-75
2023/01/16 10:32:15;;;;;;;2.78;1.00;;;4.50;99.90;;;;;;5081364;28;20063;-78
2023/01/16 10:34:52;;;;;;;1.90;0.95;;;4.50;99.90;;;;;;5055570;28;20053;-76
2023/01/16 10:37:19;;;;;;;5.65;1.77;;;4.50;99.90;;;;;;5053101;28;20545;-75
2023/01/16 10:39:46;;;;;;;3.10;1.10;;;4.50;99.90;;;;;;5060670;28;20477;-76
2023/01/16 10:51:00;;;;;;;3.50;1.00;;;4.50;99.90;;;;;;5075407;28;20057;-74
2023/01/16 10:53:26;;;;;;;2.00;1.27;;;4.50;99.90;;;;;;5081265;28;20092;-76
2023/01/16 10:55:54;;;;;;;3.00;1.30;;;4.50;99.90;;;;;;5055289;28;20049;-74
2023/01/16 10:58:30;;;;;;;3.88;1.27;;;4.50;99.90;;;;;;5072404;28;20400;-75
2023/01/16 11:01:03;;;;;;;3.95;1.13;;;4.50;99.90;;;;;;5071582;28;20059;-75
2023/01/16 11:03:45;;;;;;;1.80;0.80;;;4.50;99.90;;;;;;5065981;28;20078;-77
2023/01/16 11:06:15;;;;;;;3.67;1.40;;;4.50;99.90;;;;;;5071343;28;20052;-75
2023/01/16 11:08:42;;;;;;;2.15;0.95;;;4.50;99.90;;;;;;5072607;28;20052;-76
2023/01/16 11:18:27;;;;;;;3.47;1.30;;;4.50;99.90;;;;;;5074733;28;20060;-76
2023/01/16 11:19:30;;;;;;;3.08;1.33;;;4.50;99.90;;;;;;5073643;28;20048;-75
2023/01/16 11:22:07;;;;;;;3.55;1.33;;;4.50;99.90;;;;;;5053902;28;20397;-76
2023/01/16 11:24:38;;;;;;;5.50;1.30;;;4.60;99.90;;;;;;5067284;28;20118;-75
2023/01/16 11:27:18;;;;;;;4.03;1.45;;;4.60;99.90;;;;;;5072581;28;20045;-77
2023/01/16 11:29:43;;;;;;;3.30;1.38;;;4.60;99.90;;;;;;5074883;28;20395;-76
2023/01/16 11:32:13;;;;;;;2.47;1.10;;;4.50;99.90;;;;;;5072497;28;20157;-75
2023/01/16 11:34:46;;;;;;;4.65;1.48;;;4.60;99.90;;;;;;5070053;28;20298;-78
2023/01/16 11:37:15;;;;;;;4.28;1.45;;;4.60;99.90;;;;;;5059278;28;20052;-76
2023/01/16 11:39:46;;;;;;;3.03;0.90;;;4.60;99.90;;;;;;5073371;28;20055;-80
2023/01/16 11:47:52;;;;;;;3.40;1.40;;;4.60;99.90;;;;;;5017188;28;20095;-78
2023/01/16 11:50:27;;;;;;;1.83;0.90;;;4.60;99.90;;;;;;5065009;28;20075;-78
2023/01/16 11:52:53;;;;;;;1.52;0.88;;;4.60;99.90;;;;;;5072413;28;20140;-77
2023/01/16 11:55:21;;;;;;;5.22;1.90;;;4.70;99.90;;;;;;5080119;28;20144;-78
2023/01/16 11:57:55;;;;;;;4.68;1.52;;;4.70;99.90;;;;;;5057617;28;20052;-77
2023/01/16 12:00:46;;;;;;;4.68;1.13;;;4.70;99.90;;;;;;5063159;28;20487;-78
2023/01/16 12:03:43;;;;;;;4.22;1.08;;;4.70;99.90;;;;;;5075323;28;20496;-78
2023/01/16 12:06:35;;;;;;;1.80;0.82;;;4.70;99.90;;;;;;5075840;28;20048;-78
2023/01/16 12:09:13;;;;;;;2.38;1.08;;;4.80;99.90;;;;;;5052560;28;20049;-79
2023/01/16 12:14:17;;;;;;;3.63;1.42;;;4.80;99.90;;;;;;5067658;28;20049;-78
2023/01/16 12:14:54;;;;;;;2.42;1.10;;;4.80;99.90;;;;;;5066709;28;20061;-81
2023/01/16 12:17:31;;;;;;;;;;;4.80;99.90;;;;;;5063957;28;20050;-80
2023/01/16 12:20:01;;;;;;;2.70;1.13;;;4.90;99.90;;;;;;5073404;28;19920;-77
2023/01/16 12:22:55;;;;;;;3.17;1.33;;;4.90;99.90;;;;;;5077176;28;20048;-79
2023/01/16 12:25:42;;;;;;;5.50;1.20;;;4.90;99.90;;;;;;5052295;28;20061;-77
2023/01/16 12:28:20;;;;;;;2.78;0.90;;;5.00;99.90;;;;;;5032480;28;20053;-78
2023/01/16 12:31:17;;;;;;;4.22;1.23;;;5.00;99.90;;;;;;5017253;28;20441;-76
2023/01/16 12:33:59;;;;;;;8.38;1.40;;;5.00;99.90;;;;;;5034146;28;20080;-78
2023/01/16 12:36:27;;;;;;;5.57;1.50;;;5.00;99.90;;;;;;5024266;28;20056;-76
2023/01/16 12:39:08;;;;;;;5.45;1.42;;;5.00;99.90;;;;;;5017230;28;20046;-79
2023/01/16 12:44:59;;;;;;;3.05;1.05;;;4.90;99.90;;;;;;5046226;28;20496;-80
2023/01/16 12:47:45;;;;;;;3.45;1.50;;;5.00;99.90;;;;;;5019754;28;20045;-78
2023/01/16 12:50:10;;;;;;;5.18;1.67;;;5.00;99.90;;;;;;5039658;28;20048;-79
2023/01/16 12:52:57;;;;;;;3.97;1.20;;;5.00;99.90;;;;;;5039950;28;20058;-76
2023/01/16 12:55:37;;;;;;;3.10;1.08;;;5.00;99.90;;;;;;5015525;28;20049;-74
2023/01/16 12:58:18;;;;;;;5.88;1.90;;;5.10;99.90;;;;;;5031838;28;20080;-77
2023/01/16 13:00:47;;;;;;;4.32;1.73;;;5.10;99.90;;;;;;5036532;28;20111;-77
2023/01/16 13:03:25;;;;;;;3.63;1.35;;;5.10;99.90;;;;;;5032899;28;20500;-77
2023/01/16 13:05:53;;;;;;;4.88;1.63;;;5.10;99.90;;;;;;5032926;28;20121;-78
2023/01/16 13:08:24;;;;;;;3.58;1.60;;;5.10;99.90;;;;;;5033086;28;20049;-75
2023/01/16 13:14:03;;;;;;;3.53;1.38;;;5.10;99.90;;;;;;5048843;28;20050;-77
2023/01/16 13:16:34;;;;;;;3.53;1.27;;;5.10;99.90;;;;;;5029733;28;20486;-79
2023/01/16 13:19:11;;;;;;;3.72;1.35;;;5.10;99.90;;;;;;5038295;28;20044;-78
2023/01/16 13:21:52;;;;;;;1.35;0.80;;;5.10;99.90;;;;;;5021898;28;20047;-80
2023/01/16 13:24:29;;;;;;;3.20;1.20;;;5.10;99.90;;;;;;5034736;28;20560;-78
2023/01/16 13:27:02;;;;;;;4.72;1.40;;;5.20;99.90;;;;;;5043102;28;20562;-78
2023/01/16 13:29:39;;;;;;;4.78;1.40;;;5.20;99.90;;;;;;5040472;28;20492;-79
2023/01/16 13:32:44;;;;;;;4.78;1.70;;;5.20;99.90;;;;;;5052482;28;20053;-77
2023/01/16 13:35:44;;;;;;;5.38;1.70;;;5.20;99.90;;;;;;5052231;28;20056;-76
2023/01/16 13:38:47;;;;;;;3.40;1.30;;;5.20;99.90;;;;;;5054672;28;20502;-80
2023/01/16 13:41:39;;;;;;;3.22;1.27;;;5.40;99.90;;;;;;5055317;28;20098;-76
2023/01/16 13:47:18;;;;;;;3.50;1.45;;;5.50;99.90;;;;;;5065704;28;20060;-79
2023/01/16 13:49:51;;;;;;;3.28;1.20;;;5.40;99.90;;;;;;5038412;28;20048;-76
2023/01/16 13:52:21;;;;;;;4.22;1.58;;;5.40;99.90;;;;;;5045206;28;20537;-78
2023/01/16 13:54:49;;;;;;;4.30;1.40;;;5.40;99.90;;;;;;5040235;28;21017;-77
2023/01/16 13:57:21;;;;;;;2.10;0.95;;;5.30;99.90;;;;;;5055141;28;20045;-77
2023/01/16 13:59:50;;;;;;;5.00;1.73;;;5.40;99.90;;;;;;5056381;28;20044;-76
2023/01/16 14:02:33;;;;;;;1.70;0.85;;;5.30;99.90;;;;;;5091851;28;20407;-79
2023/01/16 14:05:08;;;;;;;3.40;1.25;;;5.40;99.90;;;;;;5075559;28;20048;-78
2023/01/16 14:10:45;;;;;;;3.22;1.10;;;5.30;99.90;;;;;;5041808;28;20053;-77
2023/01/16 14:13:14;;;;;;;2.10;0.98;;;5.30;99.90;;;;;;5054337;28;20110;-78
2023/01/16 14:18:56;;;;;;;2.15;1.05;;;5.40;99.90;;;;;;5053864;28;20056;-77
2023/01/16 14:24:25;;;;;;;3.95;1.40;;;5.40;99.90;;;;;;5076766;28;20052;-79
2023/01/16 14:26:57;;;;;;;4.03;1.42;;;5.30;99.90;;;;;;5012354;28;20045;-78